TimeEST,TemperatureF,Dew PointF,Humidity,Sea Level PressureIn,VisibilityMPH,Wind Direction,Wind SpeedMPH,Gust SpeedMPH,PrecipitationIn,Events,Conditions,WindDirDegrees,DateUTC
12:36 AM,34.0,27.0,75,30.03,10.0,Calm,Calm,-,N/A,,Overcast,0,2013-12-01 05:36:00
12:54 AM,34.0,27.0,75,30.05,10.0,Calm,Calm,-,N/A,,Overcast,0,2013-12-01 05:54:00
1:41 AM,34.0,28.0,79,30.02,10.0,NW,3.5,-,N/A,,Overcast,310,2013-12-01 06:41:00
1:54 AM,34.0,28.9,82,30.05,9.0,NW,3.5,-,N/A,,Overcast,310,2013-12-01 06:54:00
2:54 AM,33.1,30.0,89,30.05,7.0,Calm,Calm,-,N/A,,Overcast,0,2013-12-01 07:54:00
3:29 AM,33.1,30.0,89,30.03,6.0,Calm,Calm,-,N/A,,Overcast,0,2013-12-01 08:29:00
3:54 AM,33.1,30.0,89,30.05,6.0,WNW,3.5,-,N/A,,Overcast,290,2013-12-01 08:54:00
4:46 AM,33.1,30.9,92,30.02,5.0,WNW,4.6,-,N/A,,Overcast,300,2013-12-01 09:46:00
4:54 AM,33.1,30.9,92,30.04,5.0,NW,5.8,-,N/A,,Overcast,310,2013-12-01 09:54:00
5:25 AM,33.1,30.9,92,30.02,6.0,WNW,3.5,-,N/A,,Overcast,290,2013-12-01 10:25:00
5:54 AM,33.1,30.0,89,30.05,7.0,WNW,4.6,-,N/A,,Overcast,300,2013-12-01 10:54:00
6:54 AM,33.1,30.9,92,30.06,6.0,NW,5.8,-,N/A,,Overcast,310,2013-12-01 11:54:00
6:59 AM,33.1,30.9,92,30.04,5.0,NW,5.8,-,N/A,,Overcast,310,2013-12-01 11:59:00
7:54 AM,34.0,33.1,96,30.07,3.0,North,10.4,-,0.01,,Overcast,360,2013-12-01 12:54:00
8:54 AM,33.1,32.0,96,30.09,4.0,NNE,12.7,-,N/A,,Overcast,20,2013-12-01 13:54:00
9:54 AM,33.1,30.9,92,30.10,6.0,North,10.4,-,N/A,,Overcast,10,2013-12-01 14:54:00
10:31 AM,32.0,30.0,92,30.08,9.0,NNE,11.5,-,N/A,,Overcast,20,2013-12-01 15:31:00
10:54 AM,32.0,30.0,92,30.12,10.0,NNE,10.4,-,N/A,,Overcast,20,2013-12-01 15:54:00
11:54 AM,33.1,28.0,82,30.10,10.0,NNE,9.2,-,N/A,,Overcast,20,2013-12-01 16:54:00
12:32 PM,33.1,26.1,75,30.07,10.0,NNE,10.4,-,N/A,,Overcast,30,2013-12-01 17:32:00
12:54 PM,33.1,26.1,75,30.10,10.0,NNE,11.5,-,N/A,,Overcast,20,2013-12-01 17:54:00
1:54 PM,32.0,25.0,75,30.08,10.0,North,10.4,-,N/A,,Overcast,10,2013-12-01 18:54:00
2:54 PM,32.0,25.0,75,30.07,10.0,North,9.2,-,N/A,,Overcast,360,2013-12-01 19:54:00
3:54 PM,32.0,25.0,75,30.08,10.0,North,8.1,-,N/A,,Overcast,360,2013-12-01 20:54:00
4:54 PM,30.9,24.1,76,30.09,10.0,NNW,4.6,-,N/A,,Overcast,330,2013-12-01 21:54:00
5:27 PM,30.9,24.1,76,30.06,10.0,NNW,4.6,-,N/A,,Overcast,330,2013-12-01 22:27:00
5:54 PM,30.9,24.1,76,30.09,10.0,NNW,4.6,-,N/A,,Overcast,330,2013-12-01 22:54:00
6:05 PM,30.9,25.0,79,30.06,10.0,NNW,6.9,-,N/A,,Overcast,340,2013-12-01 23:05:00
6:12 PM,30.9,25.0,79,30.06,10.0,NNW,6.9,-,N/A,,Overcast,340,2013-12-01 23:12:00
6:54 PM,30.9,25.0,79,30.09,10.0,NNW,6.9,-,N/A,,Overcast,340,2013-12-01 23:54:00
7:54 PM,30.0,24.1,79,30.07,10.0,North,8.1,-,N/A,,Overcast,350,2013-12-02 00:54:00
8:54 PM,30.0,24.1,79,30.06,10.0,North,6.9,-,N/A,,Overcast,350,2013-12-02 01:54:00
9:54 PM,28.9,23.0,78,30.06,10.0,NW,4.6,-,N/A,,Overcast,320,2013-12-02 02:54:00
10:54 PM,28.9,23.0,78,30.06,10.0,Calm,Calm,-,N/A,,Overcast,0,2013-12-02 03:54:00
11:54 PM,28.9,23.0,78,30.05,10.0,Calm,Calm,-,N/A,,Overcast,0,2013-12-02 04:54:00